Terminal Aerodrome Forecast
Issued by NWS

Home | Current Version | Previous Version | Text Only | Print | Product List | Glossary On
Versions: 1 2 3 4 5 6 7 8 9 10 11 12 13 14 15 16 17 18 19 20 21
000
FTUS43 KMKX 202320
TAFUES
TAF
KUES 202320Z 2100/2124 23008KT P6SM SCT070 BKN100
     FM210200 16005KT P6SM VCSH SCT040 BKN070
     FM210700 19006KT P6SM OVC060
     FM211000 20006KT 4SM -RA BR OVC040
     FM211400 26009KT 4SM -SHRA BR OVC025
     FM212300 28012KT P6SM OVC040=

USA.gov is the U.S. government's official web portal to all federal, state and local government web resources and services.